EZY320 EFOU-EFVA
Flight info
| Callsign | EZY320 |
|---|---|
| Flight time | N/A |
| Altitude | 22000 |
| Route | IXONO DCT RERBU |
| Aircraft | A20N/M-SDE2E3FGHIRWXY/LB1 |
Departure
| Time | 2026-04-20 16:22 |
|---|---|
| Airport | Oulu Airport (EFOU) |
Arrival
| Time | N/A |
|---|---|
| Airport | Vaasa Airport (EFVA) |
| Time | Latitude | Longitude | Altitude | Speed | Heading |
|---|---|---|---|---|---|
| 2026-04-20 16:07 | 64.92823 | 25.37215 | 53 ft | 0 kts | 330° |
| 2026-04-20 16:19 | 64.92827 | 25.37207 | 50 ft | 4 kts | 323° |
| 2026-04-20 16:19 | 64.92826 | 25.37147 | 53 ft | 5 kts | 226° |
| 2026-04-20 16:19 | 64.92782 | 25.37160 | 50 ft | 5 kts | 138° |
| 2026-04-20 16:20 | 64.92744 | 25.37278 | 52 ft | 12 kts | 123° |
| 2026-04-20 16:20 | 64.92680 | 25.37523 | 52 ft | 22 kts | 121° |
| 2026-04-20 16:20 | 64.92600 | 25.37839 | 49 ft | 23 kts | 120° |
| 2026-04-20 16:20 | 64.92520 | 25.37928 | 50 ft | 11 kts | 197° |
| 2026-04-20 16:21 | 64.92475 | 25.37780 | 49 ft | 12 kts | 258° |
| 2026-04-20 16:21 | 64.92478 | 25.37587 | 50 ft | 11 kts | 288° |
| 2026-04-20 16:21 | 64.92594 | 25.37115 | 51 ft | 68 kts | 301° |
| 2026-04-20 16:21 | 64.92965 | 25.35652 | 54 ft | 138 kts | 301° |
| 2026-04-20 16:22 | 64.93500 | 25.33524 | 489 ft | 154 kts | 300° |
| 2026-04-20 16:22 | 64.94023 | 25.31289 | 1220 ft | 159 kts | 299° |
| 2026-04-20 16:22 | 64.94619 | 25.28919 | 1717 ft | 179 kts | 302° |
| 2026-04-20 16:22 | 64.95306 | 25.26186 | 1943 ft | 205 kts | 297° |
| 2026-04-20 16:23 | 64.95628 | 25.23001 | 1808 ft | 199 kts | 269° |
| 2026-04-20 16:23 | 64.95170 | 25.19935 | 1540 ft | 207 kts | 235° |
| 2026-04-20 16:23 | 64.94038 | 25.17629 | 1297 ft | 224 kts | 215° |
| 2026-04-20 16:23 | 64.92684 | 25.15706 | 1033 ft | 228 kts | 212° |
| 2026-04-20 16:24 | 64.91309 | 25.13860 | 904 ft | 227 kts | 211° |
| 2026-04-20 16:24 | 64.89933 | 25.11992 | 1444 ft | 223 kts | 212° |
| 2026-04-20 16:24 | 64.88674 | 25.10242 | 1883 ft | 216 kts | 212° |
| 2026-04-20 16:24 | 64.87326 | 25.08338 | 1995 ft | 232 kts | 213° |
| 2026-04-20 16:25 | 64.85908 | 25.06320 | 1982 ft | 247 kts | 213° |
| 2026-04-20 16:25 | 64.84405 | 25.04175 | 1988 ft | 256 kts | 213° |
| 2026-04-20 16:25 | 64.83396 | 25.02739 | 1991 ft | 257 kts | 212° |
| 2026-04-20 16:25 | 64.81866 | 25.00562 | 2010 ft | 256 kts | 213° |
| 2026-04-20 16:26 | 64.80331 | 24.98378 | 2429 ft | 260 kts | 213° |
| 2026-04-20 16:26 | 64.78262 | 24.95435 | 3830 ft | 264 kts | 213° |
| 2026-04-20 16:26 | 64.76681 | 24.93191 | 4883 ft | 268 kts | 213° |
| 2026-04-20 16:26 | 64.75072 | 24.90909 | 5893 ft | 273 kts | 213° |
| 2026-04-20 16:27 | 64.73968 | 24.89345 | 6594 ft | 275 kts | 213° |
| 2026-04-20 16:27 | 64.72313 | 24.87005 | 7575 ft | 280 kts | 213° |
| 2026-04-20 16:27 | 64.70657 | 24.84666 | 8555 ft | 284 kts | 213° |
| 2026-04-20 16:27 | 64.68946 | 24.82252 | 9553 ft | 289 kts | 213° |
| 2026-04-20 16:28 | 64.67201 | 24.79794 | 10461 ft | 299 kts | 213° |
| 2026-04-20 16:28 | 64.65348 | 24.77183 | 10890 ft | 323 kts | 213° |
| 2026-04-20 16:28 | 64.63370 | 24.74404 | 11532 ft | 338 kts | 213° |
| 2026-04-20 16:28 | 64.61330 | 24.71546 | 12418 ft | 346 kts | 213° |
| 2026-04-20 16:29 | 64.59278 | 24.68540 | 13370 ft | 351 kts | 217° |
| 2026-04-20 16:29 | 64.57324 | 24.65062 | 14311 ft | 356 kts | 221° |
| 2026-04-20 16:29 | 64.55391 | 24.61404 | 15167 ft | 361 kts | 221° |
| 2026-04-20 16:29 | 64.53436 | 24.57675 | 16029 ft | 365 kts | 221° |
| 2026-04-20 16:30 | 64.51452 | 24.53900 | 16842 ft | 371 kts | 221° |
| 2026-04-20 16:30 | 64.49436 | 24.50078 | 17616 ft | 377 kts | 221° |
| 2026-04-20 16:30 | 64.47395 | 24.46220 | 18440 ft | 381 kts | 221° |
| 2026-04-20 16:30 | 64.45325 | 24.42320 | 19178 ft | 385 kts | 221° |
| 2026-04-20 16:31 | 64.43234 | 24.38390 | 19888 ft | 390 kts | 221° |
| 2026-04-20 16:31 | 64.41117 | 24.34419 | 20598 ft | 394 kts | 221° |
| 2026-04-20 16:31 | 64.38977 | 24.30414 | 21301 ft | 398 kts | 221° |
| 2026-04-20 16:31 | 64.36815 | 24.26376 | 21960 ft | 402 kts | 221° |
| 2026-04-20 16:32 | 64.34630 | 24.22303 | 22318 ft | 404 kts | 221° |
| 2026-04-20 16:32 | 64.32440 | 24.18232 | 22378 ft | 405 kts | 221° |
| 2026-04-20 16:32 | 64.30244 | 24.14157 | 22377 ft | 406 kts | 221° |
| 2026-04-20 16:32 | 64.28043 | 24.10082 | 22376 ft | 406 kts | 221° |
| 2026-04-20 16:33 | 64.25833 | 24.05997 | 22372 ft | 407 kts | 221° |
| 2026-04-20 16:33 | 64.23623 | 24.01923 | 22376 ft | 408 kts | 221° |
| 2026-04-20 16:33 | 64.21408 | 23.97848 | 22377 ft | 408 kts | 221° |
| 2026-04-20 16:33 | 64.19320 | 23.94013 | 22377 ft | 408 kts | 221° |
| 2026-04-20 16:34 | 64.17102 | 23.89949 | 22376 ft | 408 kts | 220° |
| 2026-04-20 16:34 | 64.14880 | 23.85886 | 22376 ft | 408 kts | 220° |
| 2026-04-20 16:34 | 64.12660 | 23.81835 | 22376 ft | 408 kts | 220° |
| 2026-04-20 16:34 | 64.10439 | 23.77790 | 22376 ft | 408 kts | 220° |
| 2026-04-20 16:35 | 64.08215 | 23.73748 | 22373 ft | 408 kts | 220° |
| 2026-04-20 16:35 | 64.05990 | 23.69713 | 22373 ft | 408 kts | 220° |
| 2026-04-20 16:35 | 64.03767 | 23.65690 | 22374 ft | 408 kts | 220° |
| 2026-04-20 16:35 | 64.01539 | 23.61667 | 22373 ft | 408 kts | 220° |
| 2026-04-20 16:36 | 63.99311 | 23.57650 | 22373 ft | 409 kts | 220° |
| 2026-04-20 16:36 | 63.97079 | 23.53637 | 22373 ft | 409 kts | 220° |
| 2026-04-20 16:36 | 63.94845 | 23.49628 | 22374 ft | 409 kts | 220° |
| 2026-04-20 16:36 | 63.92605 | 23.45618 | 22373 ft | 409 kts | 220° |
| 2026-04-20 16:37 | 63.90366 | 23.41616 | 22376 ft | 409 kts | 219° |
| 2026-04-20 16:37 | 63.88128 | 23.37625 | 22375 ft | 409 kts | 219° |
| 2026-04-20 16:37 | 63.85888 | 23.33639 | 22375 ft | 409 kts | 219° |
| 2026-04-20 16:37 | 63.83643 | 23.29651 | 22374 ft | 409 kts | 219° |
| 2026-04-20 16:38 | 63.81398 | 23.25674 | 22374 ft | 409 kts | 219° |
| 2026-04-20 16:38 | 63.79154 | 23.21705 | 22374 ft | 409 kts | 219° |
| 2026-04-20 16:38 | 63.76908 | 23.17741 | 22373 ft | 409 kts | 219° |
| 2026-04-20 16:38 | 63.74656 | 23.13776 | 22373 ft | 410 kts | 218° |
| 2026-04-20 16:39 | 63.72406 | 23.09823 | 22374 ft | 411 kts | 218° |
| 2026-04-20 16:39 | 63.70180 | 23.05918 | 22374 ft | 411 kts | 218° |
| 2026-04-20 16:39 | 63.67920 | 23.01962 | 22373 ft | 411 kts | 218° |
| 2026-04-20 16:39 | 63.65661 | 22.98016 | 22374 ft | 411 kts | 218° |
| 2026-04-20 16:40 | 63.63397 | 22.94068 | 22373 ft | 411 kts | 218° |
| 2026-04-20 16:40 | 63.61132 | 22.90129 | 22374 ft | 411 kts | 218° |
| 2026-04-20 16:40 | 63.58865 | 22.86192 | 22374 ft | 411 kts | 218° |
| 2026-04-20 16:40 | 63.56597 | 22.82264 | 22373 ft | 411 kts | 218° |
| 2026-04-20 16:41 | 63.54329 | 22.78343 | 22373 ft | 411 kts | 218° |
| 2026-04-20 16:41 | 63.52062 | 22.74431 | 22374 ft | 411 kts | 218° |
| 2026-04-20 16:41 | 63.49795 | 22.70529 | 22373 ft | 411 kts | 218° |
| 2026-04-20 16:41 | 63.47521 | 22.66625 | 22374 ft | 412 kts | 217° |
| 2026-04-20 16:42 | 63.45238 | 22.62712 | 22374 ft | 413 kts | 217° |
| 2026-04-20 16:42 | 63.42955 | 22.58804 | 22374 ft | 413 kts | 217° |
| 2026-04-20 16:42 | 63.40673 | 22.54905 | 22382 ft | 413 kts | 217° |
| 2026-04-20 16:42 | 63.38386 | 22.51007 | 22381 ft | 413 kts | 217° |
| 2026-04-20 16:43 | 63.36099 | 22.47119 | 22380 ft | 413 kts | 217° |
| 2026-04-20 16:43 | 63.33810 | 22.43233 | 22376 ft | 413 kts | 217° |
| 2026-04-20 16:43 | 63.31519 | 22.39355 | 22376 ft | 413 kts | 217° |
| 2026-04-20 16:43 | 63.29229 | 22.35483 | 22376 ft | 413 kts | 217° |
| 2026-04-20 16:44 | 63.26937 | 22.31617 | 22376 ft | 413 kts | 217° |
| 2026-04-20 16:44 | 63.24694 | 22.27842 | 22237 ft | 405 kts | 217° |
| 2026-04-20 16:44 | 63.22509 | 22.24042 | 22006 ft | 394 kts | 218° |
| 2026-04-20 16:44 | 63.20428 | 22.20213 | 21809 ft | 384 kts | 219° |
| 2026-04-20 16:45 | 63.18404 | 22.16451 | 21623 ft | 373 kts | 219° |
| 2026-04-20 16:45 | 63.16442 | 22.12809 | 21392 ft | 365 kts | 219° |
| 2026-04-20 16:45 | 63.14509 | 22.09231 | 21049 ft | 360 kts | 219° |
| 2026-04-20 16:45 | 63.12592 | 22.05694 | 20661 ft | 357 kts | 219° |
| 2026-04-20 16:46 | 63.10688 | 22.02187 | 20231 ft | 354 kts | 219° |
| 2026-04-20 16:46 | 63.08809 | 21.98734 | 19670 ft | 350 kts | 218° |
| 2026-04-20 16:46 | 63.06760 | 21.95934 | 19077 ft | 345 kts | 197° |
| 2026-04-20 16:46 | 63.04427 | 21.95299 | 18463 ft | 336 kts | 169° |
| 2026-04-20 16:47 | 63.02191 | 21.96539 | 17829 ft | 329 kts | 158° |
| 2026-04-20 16:47 | 63.00035 | 21.98166 | 17208 ft | 326 kts | 158° |
| 2026-04-20 16:47 | 62.97891 | 21.99763 | 16654 ft | 323 kts | 158° |
| 2026-04-20 16:47 | 62.95782 | 22.01263 | 16252 ft | 315 kts | 159° |
| 2026-04-20 16:48 | 62.93696 | 22.02610 | 15768 ft | 312 kts | 166° |
| 2026-04-20 16:48 | 62.91535 | 22.02442 | 15211 ft | 316 kts | 196° |
| 2026-04-20 16:48 | 62.89693 | 21.99997 | 14663 ft | 316 kts | 228° |
| 2026-04-20 16:48 | 62.88722 | 21.95734 | 14472 ft | 317 kts | 265° |
| 2026-04-20 16:49 | 62.88856 | 21.91004 | 14502 ft | 309 kts | 293° |
| 2026-04-20 16:49 | 62.89972 | 21.87131 | 14552 ft | 299 kts | 324° |
| 2026-04-20 16:49 | 62.91767 | 21.85040 | 14600 ft | 291 kts | 346° |
| 2026-04-20 16:49 | 62.93712 | 21.83796 | 14620 ft | 292 kts | 349° |
| 2026-04-20 16:50 | 62.95676 | 21.82639 | 14643 ft | 293 kts | 349° |
| 2026-04-20 16:50 | 62.97650 | 21.81438 | 14661 ft | 295 kts | 348° |
| 2026-04-20 16:50 | 62.99629 | 21.80189 | 14697 ft | 297 kts | 348° |